sensor_id;sensor_type;location;lat;lon;timestamp;P1;durP1;ratioP1;P2;durP2;ratioP2
82805;SDS011;72558;51.000;-3.112;2023-11-22T00:00:34;9.8;;;3.7;;
82805;SDS011;72558;51.000;-3.112;2023-11-22T00:03:34;9.2;;;4.3;;
82805;SDS011;72558;51.000;-3.112;2023-11-22T00:06:34;9.1;;;4.0;;
82805;SDS011;72558;51.000;-3.112;2023-11-22T00:09:34;7.8;;;3.7;;
82805;SDS011;72558;51.000;-3.112;2023-11-22T00:12:33;11.4;;;3.9;;
82805;SDS011;72558;51.000;-3.112;2023-11-22T00:15:34;9.1;;;4.3;;
82805;SDS011;72558;51.000;-3.112;2023-11-22T00:18:34;12.1;;;4.9;;
82805;SDS011;72558;51.000;-3.112;2023-11-22T00:21:34;9.5;;;4.6;;
82805;SDS011;72558;51.000;-3.112;2023-11-22T00:24:34;8.7;;;4.8;;
82805;SDS011;72558;51.000;-3.112;2023-11-22T00:27:34;12.1;;;5.4;;
82805;SDS011;72558;51.000;-3.112;2023-11-22T00:30:34;10.0;;;5.3;;
82805;SDS011;72558;51.000;-3.112;2023-11-22T00:33:34;12.4;;;5.0;;
82805;SDS011;72558;51.000;-3.112;2023-11-22T00:36:34;11.1;;;5.0;;
82805;SDS011;72558;51.000;-3.112;2023-11-22T00:39:34;9.4;;;4.7;;
82805;SDS011;72558;51.000;-3.112;2023-11-22T00:42:34;9.1;;;4.5;;
82805;SDS011;72558;51.000;-3.112;2023-11-22T00:45:34;10.8;;;5.0;;
82805;SDS011;72558;51.000;-3.112;2023-11-22T00:48:34;11.7;;;5.4;;
82805;SDS011;72558;51.000;-3.112;2023-11-22T00:51:33;12.1;;;5.1;;
82805;SDS011;72558;51.000;-3.112;2023-11-22T00:54:34;11.1;;;5.0;;
82805;SDS011;72558;51.000;-3.112;2023-11-22T00:57:34;11.3;;;5.3;;
82805;SDS011;72558;51.000;-3.112;2023-11-22T01:00:34;10.2;;;4.8;;
82805;SDS011;72558;51.000;-3.112;2023-11-22T01:03:34;11.1;;;4.5;;
82805;SDS011;72558;51.000;-3.112;2023-11-22T01:06:34;11.3;;;5.2;;
82805;SDS011;72558;51.000;-3.112;2023-11-22T01:09:34;11.3;;;5.4;;
82805;SDS011;72558;51.000;-3.112;2023-11-22T01:12:34;10.3;;;4.7;;
82805;SDS011;72558;51.000;-3.112;2023-11-22T01:15:34;9.0;;;4.4;;
82805;SDS011;72558;51.000;-3.112;2023-11-22T01:18:34;8.6;;;4.7;;
82805;SDS011;72558;51.000;-3.112;2023-11-22T01:21:34;10.9;;;4.7;;
82805;SDS011;72558;51.000;-3.112;2023-11-22T01:24:34;11.4;;;4.6;;
82805;SDS011;72558;51.000;-3.112;2023-11-22T01:27:33;9.2;;;4.8;;
82805;SDS011;72558;51.000;-3.112;2023-11-22T01:30:34;9.6;;;4.7;;
82805;SDS011;72558;51.000;-3.112;2023-11-22T01:33:33;11.3;;;4.5;;
82805;SDS011;72558;51.000;-3.112;2023-11-22T01:36:34;10.0;;;4.6;;
82805;SDS011;72558;51.000;-3.112;2023-11-22T01:39:33;11.1;;;4.7;;
82805;SDS011;72558;51.000;-3.112;2023-11-22T01:42:34;10.6;;;4.5;;
82805;SDS011;72558;51.000;-3.112;2023-11-22T01:45:34;8.7;;;4.6;;
82805;SDS011;72558;51.000;-3.112;2023-11-22T01:48:34;10.5;;;5.3;;
82805;SDS011;72558;51.000;-3.112;2023-11-22T01:51:33;10.1;;;5.2;;
82805;SDS011;72558;51.000;-3.112;2023-11-22T01:54:34;10.9;;;4.6;;
82805;SDS011;72558;51.000;-3.112;2023-11-22T01:57:34;10.3;;;4.9;;
82805;SDS011;72558;51.000;-3.112;2023-11-22T02:00:33;9.1;;;4.3;;
82805;SDS011;72558;51.000;-3.112;2023-11-22T02:03:34;11.3;;;4.7;;
82805;SDS011;72558;51.000;-3.112;2023-11-22T02:06:33;8.5;;;5.0;;
82805;SDS011;72558;51.000;-3.112;2023-11-22T02:09:34;9.6;;;4.4;;
82805;SDS011;72558;51.000;-3.112;2023-11-22T02:12:34;9.3;;;4.7;;
82805;SDS011;72558;51.000;-3.112;2023-11-22T02:15:33;9.1;;;4.9;;
82805;SDS011;72558;51.000;-3.112;2023-11-22T02:18:34;11.2;;;4.9;;
82805;SDS011;72558;51.000;-3.112;2023-11-22T02:21:33;10.6;;;5.4;;
82805;SDS011;72558;51.000;-3.112;2023-11-22T02:24:34;10.4;;;4.5;;
82805;SDS011;72558;51.000;-3.112;2023-11-22T02:27:34;10.1;;;4.6;;
82805;SDS011;72558;51.000;-3.112;2023-11-22T02:30:34;10.6;;;5.3;;
82805;SDS011;72558;51.000;-3.112;2023-11-22T02:33:34;10.7;;;5.0;;
82805;SDS011;72558;51.000;-3.112;2023-11-22T02:36:34;9.4;;;5.0;;
82805;SDS011;72558;51.000;-3.112;2023-11-22T02:39:34;9.1;;;4.6;;
82805;SDS011;72558;51.000;-3.112;2023-11-22T02:42:34;10.7;;;5.1;;
82805;SDS011;72558;51.000;-3.112;2023-11-22T02:45:33;12.1;;;5.5;;
82805;SDS011;72558;51.000;-3.112;2023-11-22T02:48:35;12.3;;;5.9;;
82805;SDS011;72558;51.000;-3.112;2023-11-22T02:51:33;11.1;;;5.8;;
82805;SDS011;72558;51.000;-3.112;2023-11-22T02:54:34;13.6;;;6.4;;
82805;SDS011;72558;51.000;-3.112;2023-11-22T02:57:33;11.6;;;5.7;;
82805;SDS011;72558;51.000;-3.112;2023-11-22T03:00:34;9.3;;;5.2;;
82805;SDS011;72558;51.000;-3.112;2023-11-22T03:03:34;13.2;;;5.6;;
82805;SDS011;72558;51.000;-3.112;2023-11-22T03:06:34;8.8;;;4.9;;
82805;SDS011;72558;51.000;-3.112;2023-11-22T03:09:34;9.6;;;5.1;;
82805;SDS011;72558;51.000;-3.112;2023-11-22T03:12:33;9.8;;;5.5;;
82805;SDS011;72558;51.000;-3.112;2023-11-22T03:15:34;8.6;;;4.8;;
82805;SDS011;72558;51.000;-3.112;2023-11-22T03:18:34;9.9;;;5.0;;
82805;SDS011;72558;51.000;-3.112;2023-11-22T03:21:34;8.3;;;4.4;;
82805;SDS011;72558;51.000;-3.112;2023-11-22T03:24:33;10.5;;;4.3;;
82805;SDS011;72558;51.000;-3.112;2023-11-22T03:27:34;8.4;;;4.4;;
82805;SDS011;72558;51.000;-3.112;2023-11-22T03:30:34;8.2;;;4.1;;
82805;SDS011;72558;51.000;-3.112;2023-11-22T03:33:34;8.0;;;4.0;;
82805;SDS011;72558;51.000;-3.112;2023-11-22T03:36:33;7.7;;;4.1;;
82805;SDS011;72558;51.000;-3.112;2023-11-22T03:39:34;7.6;;;4.0;;
82805;SDS011;72558;51.000;-3.112;2023-11-22T03:42:33;8.0;;;4.6;;
82805;SDS011;72558;51.000;-3.112;2023-11-22T03:45:33;8.4;;;4.6;;
82805;SDS011;72558;51.000;-3.112;2023-11-22T03:48:34;8.4;;;4.2;;
82805;SDS011;72558;51.000;-3.112;2023-11-22T03:51:33;7.1;;;3.6;;
82805;SDS011;72558;51.000;-3.112;2023-11-22T03:54:33;8.8;;;4.2;;
82805;SDS011;72558;51.000;-3.112;2023-11-22T03:57:34;7.8;;;4.1;;
82805;SDS011;72558;51.000;-3.112;2023-11-22T04:00:34;8.3;;;4.7;;
82805;SDS011;72558;51.000;-3.112;2023-11-22T04:03:34;9.4;;;4.9;;
82805;SDS011;72558;51.000;-3.112;2023-11-22T04:06:34;8.0;;;4.2;;
82805;SDS011;72558;51.000;-3.112;2023-11-22T04:09:34;7.4;;;3.8;;
82805;SDS011;72558;51.000;-3.112;2023-11-22T04:12:34;9.3;;;4.1;;
82805;SDS011;72558;51.000;-3.112;2023-11-22T04:15:34;8.1;;;4.1;;
82805;SDS011;72558;51.000;-3.112;2023-11-22T04:18:34;9.2;;;4.1;;
82805;SDS011;72558;51.000;-3.112;2023-11-22T04:21:34;7.1;;;3.3;;
82805;SDS011;72558;51.000;-3.112;2023-11-22T04:24:33;8.9;;;3.4;;
82805;SDS011;72558;51.000;-3.112;2023-11-22T04:27:34;7.6;;;3.4;;
82805;SDS011;72558;51.000;-3.112;2023-11-22T04:30:33;8.1;;;3.3;;
82805;SDS011;72558;51.000;-3.112;2023-11-22T04:33:34;7.0;;;3.1;;
82805;SDS011;72558;51.000;-3.112;2023-11-22T04:36:34;6.9;;;3.0;;
82805;SDS011;72558;51.000;-3.112;2023-11-22T04:39:34;7.1;;;2.9;;
82805;SDS011;72558;51.000;-3.112;2023-11-22T04:42:33;6.4;;;2.7;;
82805;SDS011;72558;51.000;-3.112;2023-11-22T04:45:34;6.3;;;2.6;;
82805;SDS011;72558;51.000;-3.112;2023-11-22T04:48:34;6.8;;;2.7;;
82805;SDS011;72558;51.000;-3.112;2023-11-22T04:51:33;7.1;;;3.2;;
82805;SDS011;72558;51.000;-3.112;2023-11-22T04:54:34;6.4;;;2.8;;
82805;SDS011;72558;51.000;-3.112;2023-11-22T04:57:33;7.2;;;2.9;;
82805;SDS011;72558;51.000;-3.112;2023-11-22T05:00:34;7.6;;;3.4;;
82805;SDS011;72558;51.000;-3.112;2023-11-22T05:03:34;8.3;;;3.2;;
82805;SDS011;72558;51.000;-3.112;2023-11-22T05:06:34;7.0;;;3.0;;
82805;SDS011;72558;51.000;-3.112;2023-11-22T05:09:33;7.5;;;3.2;;
82805;SDS011;72558;51.000;-3.112;2023-11-22T05:12:34;7.0;;;2.9;;
82805;SDS011;72558;51.000;-3.112;2023-11-22T05:15:34;6.6;;;2.8;;
82805;SDS011;72558;51.000;-3.112;2023-11-22T05:18:34;5.9;;;2.9;;
82805;SDS011;72558;51.000;-3.112;2023-11-22T05:21:34;6.8;;;3.5;;
82805;SDS011;72558;51.000;-3.112;2023-11-22T05:24:34;7.7;;;3.0;;
82805;SDS011;72558;51.000;-3.112;2023-11-22T05:27:34;8.7;;;3.3;;
82805;SDS011;72558;51.000;-3.112;2023-11-22T05:30:33;6.7;;;2.8;;
82805;SDS011;72558;51.000;-3.112;2023-11-22T05:33:34;8.2;;;2.9;;
82805;SDS011;72558;51.000;-3.112;2023-11-22T05:36:33;7.4;;;2.9;;
82805;SDS011;72558;51.000;-3.112;2023-11-22T05:39:34;6.6;;;3.2;;
82805;SDS011;72558;51.000;-3.112;2023-11-22T05:42:34;8.8;;;3.4;;
82805;SDS011;72558;51.000;-3.112;2023-11-22T05:45:34;6.6;;;2.9;;
82805;SDS011;72558;51.000;-3.112;2023-11-22T05:48:34;5.7;;;2.7;;
82805;SDS011;72558;51.000;-3.112;2023-11-22T05:51:34;8.2;;;3.3;;
82805;SDS011;72558;51.000;-3.112;2023-11-22T05:54:33;5.6;;;3.0;;
82805;SDS011;72558;51.000;-3.112;2023-11-22T05:57:34;6.6;;;3.1;;
82805;SDS011;72558;51.000;-3.112;2023-11-22T06:00:34;7.8;;;3.6;;
82805;SDS011;72558;51.000;-3.112;2023-11-22T06:03:34;9.6;;;3.6;;
82805;SDS011;72558;51.000;-3.112;2023-11-22T06:06:34;8.8;;;4.1;;
82805;SDS011;72558;51.000;-3.112;2023-11-22T06:09:34;7.5;;;3.8;;
82805;SDS011;72558;51.000;-3.112;2023-11-22T06:12:34;8.4;;;3.5;;
82805;SDS011;72558;51.000;-3.112;2023-11-22T06:15:34;6.8;;;3.6;;
82805;SDS011;72558;51.000;-3.112;2023-11-22T06:18:34;7.4;;;3.5;;
82805;SDS011;72558;51.000;-3.112;2023-11-22T06:21:34;6.6;;;3.2;;
82805;SDS011;72558;51.000;-3.112;2023-11-22T06:24:34;7.0;;;3.3;;
82805;SDS011;72558;51.000;-3.112;2023-11-22T06:27:34;5.6;;;3.0;;
82805;SDS011;72558;51.000;-3.112;2023-11-22T06:30:34;6.7;;;3.2;;
82805;SDS011;72558;51.000;-3.112;2023-11-22T06:33:34;8.3;;;3.7;;
82805;SDS011;72558;51.000;-3.112;2023-11-22T06:36:34;6.4;;;3.5;;
82805;SDS011;72558;51.000;-3.112;2023-11-22T06:39:34;8.6;;;3.1;;
82805;SDS011;72558;51.000;-3.112;2023-11-22T06:42:33;8.4;;;3.3;;
82805;SDS011;72558;51.000;-3.112;2023-11-22T06:45:34;6.4;;;2.9;;
82805;SDS011;72558;51.000;-3.112;2023-11-22T06:48:33;6.9;;;3.2;;
82805;SDS011;72558;51.000;-3.112;2023-11-22T06:51:33;9.2;;;3.4;;
82805;SDS011;72558;51.000;-3.112;2023-11-22T06:54:34;9.5;;;3.4;;
82805;SDS011;72558;51.000;-3.112;2023-11-22T06:57:34;6.7;;;3.4;;
82805;SDS011;72558;51.000;-3.112;2023-11-22T07:00:34;7.3;;;3.2;;
82805;SDS011;72558;51.000;-3.112;2023-11-22T07:03:34;8.2;;;4.0;;
82805;SDS011;72558;51.000;-3.112;2023-11-22T07:06:33;7.6;;;4.1;;
82805;SDS011;72558;51.000;-3.112;2023-11-22T07:09:34;8.0;;;4.0;;
82805;SDS011;72558;51.000;-3.112;2023-11-22T07:12:34;7.6;;;3.6;;
82805;SDS011;72558;51.000;-3.112;2023-11-22T07:15:33;7.3;;;4.0;;
82805;SDS011;72558;51.000;-3.112;2023-11-22T07:18:34;8.1;;;3.9;;
82805;SDS011;72558;51.000;-3.112;2023-11-22T07:21:33;9.3;;;4.6;;
82805;SDS011;72558;51.000;-3.112;2023-11-22T07:24:34;8.3;;;4.4;;
82805;SDS011;72558;51.000;-3.112;2023-11-22T07:27:34;9.4;;;4.9;;
82805;SDS011;72558;51.000;-3.112;2023-11-22T07:30:34;13.1;;;5.6;;
82805;SDS011;72558;51.000;-3.112;2023-11-22T07:33:34;7.9;;;4.5;;
82805;SDS011;72558;51.000;-3.112;2023-11-22T07:36:34;8.5;;;4.1;;
82805;SDS011;72558;51.000;-3.112;2023-11-22T07:39:33;9.1;;;4.3;;
82805;SDS011;72558;51.000;-3.112;2023-11-22T07:42:34;11.0;;;4.5;;
82805;SDS011;72558;51.000;-3.112;2023-11-22T07:45:33;8.7;;;3.3;;
82805;SDS011;72558;51.000;-3.112;2023-11-22T07:48:33;8.0;;;3.4;;
82805;SDS011;72558;51.000;-3.112;2023-11-22T07:51:34;10.0;;;3.5;;
82805;SDS011;72558;51.000;-3.112;2023-11-22T07:54:34;11.2;;;4.1;;
82805;SDS011;72558;51.000;-3.112;2023-11-22T07:57:33;8.9;;;3.8;;
82805;SDS011;72558;51.000;-3.112;2023-11-22T08:00:34;8.4;;;3.9;;
82805;SDS011;72558;51.000;-3.112;2023-11-22T08:03:34;9.5;;;4.1;;
82805;SDS011;72558;51.000;-3.112;2023-11-22T08:06:34;9.6;;;4.3;;
82805;SDS011;72558;51.000;-3.112;2023-11-22T08:09:34;8.1;;;3.2;;
82805;SDS011;72558;51.000;-3.112;2023-11-22T08:12:33;8.3;;;3.1;;
82805;SDS011;72558;51.000;-3.112;2023-11-22T08:15:34;8.5;;;2.5;;
82805;SDS011;72558;51.000;-3.112;2023-11-22T08:18:33;7.2;;;2.5;;
82805;SDS011;72558;51.000;-3.112;2023-11-22T08:21:34;7.4;;;2.3;;
82805;SDS011;72558;51.000;-3.112;2023-11-22T08:24:34;8.3;;;2.6;;
82805;SDS011;72558;51.000;-3.112;2023-11-22T08:27:34;6.5;;;2.7;;
82805;SDS011;72558;51.000;-3.112;2023-11-22T08:30:33;7.2;;;2.6;;
82805;SDS011;72558;51.000;-3.112;2023-11-22T08:33:34;8.2;;;2.5;;
82805;SDS011;72558;51.000;-3.112;2023-11-22T08:36:33;6.5;;;2.4;;
82805;SDS011;72558;51.000;-3.112;2023-11-22T08:39:34;7.4;;;2.6;;
82805;SDS011;72558;51.000;-3.112;2023-11-22T08:42:34;7.9;;;2.4;;
82805;SDS011;72558;51.000;-3.112;2023-11-22T08:45:34;8.4;;;2.6;;
82805;SDS011;72558;51.000;-3.112;2023-11-22T08:48:34;8.9;;;2.6;;
82805;SDS011;72558;51.000;-3.112;2023-11-22T08:51:33;11.1;;;2.7;;
82805;SDS011;72558;51.000;-3.112;2023-11-22T08:54:34;6.4;;;2.7;;
82805;SDS011;72558;51.000;-3.112;2023-11-22T08:57:33;7.8;;;2.3;;
82805;SDS011;72558;51.000;-3.112;2023-11-22T09:00:34;7.1;;;2.2;;
82805;SDS011;72558;51.000;-3.112;2023-11-22T09:03:34;8.4;;;2.2;;
82805;SDS011;72558;51.000;-3.112;2023-11-22T09:06:34;7.6;;;1.6;;
82805;SDS011;72558;51.000;-3.112;2023-11-22T09:09:34;6.9;;;1.6;;
82805;SDS011;72558;51.000;-3.112;2023-11-22T09:12:34;10.7;;;1.8;;
82805;SDS011;72558;51.000;-3.112;2023-11-22T09:15:33;8.1;;;2.0;;
82805;SDS011;72558;51.000;-3.112;2023-11-22T09:18:34;9.7;;;1.7;;
82805;SDS011;72558;51.000;-3.112;2023-11-22T09:21:34;9.6;;;1.8;;
82805;SDS011;72558;51.000;-3.112;2023-11-22T09:24:33;8.9;;;2.5;;
82805;SDS011;72558;51.000;-3.112;2023-11-22T09:27:34;6.9;;;1.5;;
82805;SDS011;72558;51.000;-3.112;2023-11-22T09:30:34;8.2;;;2.0;;
82805;SDS011;72558;51.000;-3.112;2023-11-22T09:33:34;9.7;;;2.0;;
82805;SDS011;72558;51.000;-3.112;2023-11-22T09:36:34;8.8;;;2.1;;
82805;SDS011;72558;51.000;-3.112;2023-11-22T09:39:34;8.5;;;2.5;;
82805;SDS011;72558;51.000;-3.112;2023-11-22T09:42:34;10.7;;;2.6;;
82805;SDS011;72558;51.000;-3.112;2023-11-22T09:45:34;9.4;;;2.1;;
82805;SDS011;72558;51.000;-3.112;2023-11-22T09:48:33;8.1;;;1.7;;
82805;SDS011;72558;51.000;-3.112;2023-11-22T09:51:34;8.0;;;2.2;;
82805;SDS011;72558;51.000;-3.112;2023-11-22T09:54:33;10.2;;;2.2;;
82805;SDS011;72558;51.000;-3.112;2023-11-22T09:57:33;9.9;;;2.2;;
82805;SDS011;72558;51.000;-3.112;2023-11-22T10:00:34;9.7;;;2.8;;
82805;SDS011;72558;51.000;-3.112;2023-11-22T10:03:33;8.7;;;3.1;;
82805;SDS011;72558;51.000;-3.112;2023-11-22T10:06:34;9.4;;;3.2;;
82805;SDS011;72558;51.000;-3.112;2023-11-22T10:09:34;11.8;;;2.7;;
82805;SDS011;72558;51.000;-3.112;2023-11-22T10:12:34;9.5;;;2.2;;
82805;SDS011;72558;51.000;-3.112;2023-11-22T10:15:33;10.5;;;2.1;;
82805;SDS011;72558;51.000;-3.112;2023-11-22T10:18:34;9.3;;;2.1;;
82805;SDS011;72558;51.000;-3.112;2023-11-22T10:21:33;10.3;;;2.3;;
82805;SDS011;72558;51.000;-3.112;2023-11-22T10:24:34;10.4;;;3.3;;
82805;SDS011;72558;51.000;-3.112;2023-11-22T10:27:34;9.6;;;2.7;;
82805;SDS011;72558;51.000;-3.112;2023-11-22T10:30:34;9.5;;;2.9;;
82805;SDS011;72558;51.000;-3.112;2023-11-22T10:33:34;9.0;;;2.7;;
82805;SDS011;72558;51.000;-3.112;2023-11-22T10:36:34;10.1;;;2.4;;
82805;SDS011;72558;51.000;-3.112;2023-11-22T10:39:34;9.8;;;2.2;;
82805;SDS011;72558;51.000;-3.112;2023-11-22T10:42:33;11.0;;;2.3;;
82805;SDS011;72558;51.000;-3.112;2023-11-22T10:45:34;8.9;;;2.0;;
82805;SDS011;72558;51.000;-3.112;2023-11-22T10:48:34;9.5;;;2.2;;
82805;SDS011;72558;51.000;-3.112;2023-11-22T10:51:33;6.9;;;1.9;;
82805;SDS011;72558;51.000;-3.112;2023-11-22T10:54:34;8.1;;;1.8;;
82805;SDS011;72558;51.000;-3.112;2023-11-22T10:57:34;10.5;;;1.4;;
82805;SDS011;72558;51.000;-3.112;2023-11-22T11:00:34;5.2;;;1.5;;
82805;SDS011;72558;51.000;-3.112;2023-11-22T11:03:34;8.5;;;1.6;;
82805;SDS011;72558;51.000;-3.112;2023-11-22T11:06:34;9.2;;;1.8;;
82805;SDS011;72558;51.000;-3.112;2023-11-22T11:09:34;7.9;;;1.3;;
82805;SDS011;72558;51.000;-3.112;2023-11-22T11:12:33;8.5;;;1.3;;
82805;SDS011;72558;51.000;-3.112;2023-11-22T11:15:34;8.4;;;1.4;;
82805;SDS011;72558;51.000;-3.112;2023-11-22T11:18:33;9.1;;;1.5;;
82805;SDS011;72558;51.000;-3.112;2023-11-22T11:21:34;7.5;;;1.4;;
82805;SDS011;72558;51.000;-3.112;2023-11-22T11:24:33;8.6;;;1.4;;
82805;SDS011;72558;51.000;-3.112;2023-11-22T11:27:34;7.9;;;1.4;;
82805;SDS011;72558;51.000;-3.112;2023-11-22T11:30:34;7.0;;;1.5;;
82805;SDS011;72558;51.000;-3.112;2023-11-22T11:33:34;7.6;;;1.4;;
82805;SDS011;72558;51.000;-3.112;2023-11-22T11:36:34;8.0;;;1.7;;
82805;SDS011;72558;51.000;-3.112;2023-11-22T11:39:33;8.9;;;1.6;;
82805;SDS011;72558;51.000;-3.112;2023-11-22T11:42:34;9.9;;;1.6;;
82805;SDS011;72558;51.000;-3.112;2023-11-22T11:45:34;8.9;;;2.5;;
82805;SDS011;72558;51.000;-3.112;2023-11-22T11:48:33;8.7;;;2.1;;
82805;SDS011;72558;51.000;-3.112;2023-11-22T11:51:33;11.7;;;2.3;;
82805;SDS011;72558;51.000;-3.112;2023-11-22T11:54:34;8.9;;;1.9;;
82805;SDS011;72558;51.000;-3.112;2023-11-22T11:57:33;8.9;;;2.6;;
82805;SDS011;72558;51.000;-3.112;2023-11-22T12:00:34;10.1;;;2.8;;
82805;SDS011;72558;51.000;-3.112;2023-11-22T12:03:34;10.8;;;2.6;;
82805;SDS011;72558;51.000;-3.112;2023-11-22T12:06:34;7.7;;;2.0;;
82805;SDS011;72558;51.000;-3.112;2023-11-22T12:09:34;13.0;;;2.5;;
82805;SDS011;72558;51.000;-3.112;2023-11-22T12:12:34;7.7;;;2.0;;
82805;SDS011;72558;51.000;-3.112;2023-11-22T12:15:34;7.2;;;1.7;;
82805;SDS011;72558;51.000;-3.112;2023-11-22T12:18:33;11.7;;;2.7;;
82805;SDS011;72558;51.000;-3.112;2023-11-22T12:21:34;11.0;;;2.5;;
82805;SDS011;72558;51.000;-3.112;2023-11-22T12:24:34;12.0;;;2.2;;
82805;SDS011;72558;51.000;-3.112;2023-11-22T12:27:34;8.1;;;1.9;;
82805;SDS011;72558;51.000;-3.112;2023-11-22T12:30:34;7.7;;;1.9;;
82805;SDS011;72558;51.000;-3.112;2023-11-22T12:33:34;9.9;;;1.8;;
82805;SDS011;72558;51.000;-3.112;2023-11-22T12:36:34;7.7;;;1.3;;
82805;SDS011;72558;51.000;-3.112;2023-11-22T12:39:33;7.1;;;1.5;;
82805;SDS011;72558;51.000;-3.112;2023-11-22T12:42:34;10.3;;;1.7;;
82805;SDS011;72558;51.000;-3.112;2023-11-22T12:45:34;8.4;;;1.7;;
82805;SDS011;72558;51.000;-3.112;2023-11-22T12:48:34;7.2;;;1.5;;
82805;SDS011;72558;51.000;-3.112;2023-11-22T12:51:34;8.0;;;1.9;;
82805;SDS011;72558;51.000;-3.112;2023-11-22T12:54:33;7.2;;;1.8;;
82805;SDS011;72558;51.000;-3.112;2023-11-22T12:57:34;9.6;;;2.4;;
82805;SDS011;72558;51.000;-3.112;2023-11-22T13:00:34;7.3;;;2.2;;
82805;SDS011;72558;51.000;-3.112;2023-11-22T13:03:34;7.9;;;2.2;;
82805;SDS011;72558;51.000;-3.112;2023-11-22T13:06:33;8.4;;;2.0;;
82805;SDS011;72558;51.000;-3.112;2023-11-22T13:09:34;7.1;;;1.7;;
82805;SDS011;72558;51.000;-3.112;2023-11-22T13:12:34;8.1;;;2.1;;
82805;SDS011;72558;51.000;-3.112;2023-11-22T13:15:34;8.9;;;1.9;;
82805;SDS011;72558;51.000;-3.112;2023-11-22T13:18:34;5.6;;;1.0;;
82805;SDS011;72558;51.000;-3.112;2023-11-22T13:21:34;5.7;;;1.2;;
82805;SDS011;72558;51.000;-3.112;2023-11-22T13:24:33;4.7;;;0.7;;
82805;SDS011;72558;51.000;-3.112;2023-11-22T13:27:34;3.9;;;0.6;;
82805;SDS011;72558;51.000;-3.112;2023-11-22T13:30:34;3.0;;;0.6;;
82805;SDS011;72558;51.000;-3.112;2023-11-22T13:33:33;6.0;;;0.7;;
82805;SDS011;72558;51.000;-3.112;2023-11-22T13:36:34;2.4;;;0.7;;
82805;SDS011;72558;51.000;-3.112;2023-11-22T13:39:33;4.9;;;0.7;;
82805;SDS011;72558;51.000;-3.112;2023-11-22T13:42:34;3.5;;;0.5;;
82805;SDS011;72558;51.000;-3.112;2023-11-22T13:45:34;2.4;;;0.3;;
82805;SDS011;72558;51.000;-3.112;2023-11-22T13:48:34;1.1;;;0.2;;
82805;SDS011;72558;51.000;-3.112;2023-11-22T13:51:33;4.0;;;0.4;;
82805;SDS011;72558;51.000;-3.112;2023-11-22T13:54:34;1.7;;;0.3;;
82805;SDS011;72558;51.000;-3.112;2023-11-22T13:57:33;1.8;;;0.3;;
82805;SDS011;72558;51.000;-3.112;2023-11-22T14:00:34;2.5;;;0.1;;
82805;SDS011;72558;51.000;-3.112;2023-11-22T14:03:33;3.1;;;0.4;;
82805;SDS011;72558;51.000;-3.112;2023-11-22T14:06:34;3.3;;;0.3;;
82805;SDS011;72558;51.000;-3.112;2023-11-22T14:09:33;1.3;;;0.3;;
82805;SDS011;72558;51.000;-3.112;2023-11-22T14:12:34;2.1;;;0.3;;
82805;SDS011;72558;51.000;-3.112;2023-11-22T14:15:33;3.1;;;0.8;;
82805;SDS011;72558;51.000;-3.112;2023-11-22T14:18:34;3.4;;;0.4;;
82805;SDS011;72558;51.000;-3.112;2023-11-22T14:21:33;1.5;;;0.3;;
82805;SDS011;72558;51.000;-3.112;2023-11-22T14:24:34;1.5;;;0.4;;
82805;SDS011;72558;51.000;-3.112;2023-11-22T14:27:34;1.4;;;0.4;;
82805;SDS011;72558;51.000;-3.112;2023-11-22T14:30:34;1.0;;;0.2;;
82805;SDS011;72558;51.000;-3.112;2023-11-22T14:33:34;2.4;;;0.5;;
82805;SDS011;72558;51.000;-3.112;2023-11-22T14:36:34;1.5;;;0.4;;
82805;SDS011;72558;51.000;-3.112;2023-11-22T14:39:34;3.0;;;0.3;;
82805;SDS011;72558;51.000;-3.112;2023-11-22T14:42:34;1.8;;;0.3;;
82805;SDS011;72558;51.000;-3.112;2023-11-22T14:45:34;1.0;;;0.2;;
82805;SDS011;72558;51.000;-3.112;2023-11-22T14:48:34;2.2;;;0.2;;
82805;SDS011;72558;51.000;-3.112;2023-11-22T14:51:34;1.6;;;0.5;;
82805;SDS011;72558;51.000;-3.112;2023-11-22T14:54:34;1.9;;;0.3;;
82805;SDS011;72558;51.000;-3.112;2023-11-22T14:57:33;1.1;;;0.3;;
82805;SDS011;72558;51.000;-3.112;2023-11-22T15:00:34;1.7;;;0.5;;
82805;SDS011;72558;51.000;-3.112;2023-11-22T15:03:34;1.2;;;0.3;;
82805;SDS011;72558;51.000;-3.112;2023-11-22T15:06:34;3.3;;;0.3;;
82805;SDS011;72558;51.000;-3.112;2023-11-22T15:09:34;2.9;;;0.5;;
82805;SDS011;72558;51.000;-3.112;2023-11-22T15:12:34;0.9;;;0.4;;
82805;SDS011;72558;51.000;-3.112;2023-11-22T15:15:34;1.2;;;0.4;;
82805;SDS011;72558;51.000;-3.112;2023-11-22T15:18:34;2.2;;;0.5;;
82805;SDS011;72558;51.000;-3.112;2023-11-22T15:21:34;4.4;;;0.5;;
82805;SDS011;72558;51.000;-3.112;2023-11-22T15:24:34;1.8;;;0.3;;
82805;SDS011;72558;51.000;-3.112;2023-11-22T15:27:33;2.6;;;0.5;;
82805;SDS011;72558;51.000;-3.112;2023-11-22T15:30:34;3.0;;;0.4;;
82805;SDS011;72558;51.000;-3.112;2023-11-22T15:33:33;2.8;;;0.5;;
82805;SDS011;72558;51.000;-3.112;2023-11-22T15:36:34;2.8;;;0.7;;
82805;SDS011;72558;51.000;-3.112;2023-11-22T15:39:34;3.2;;;0.9;;
82805;SDS011;72558;51.000;-3.112;2023-11-22T15:42:34;2.4;;;0.8;;
82805;SDS011;72558;51.000;-3.112;2023-11-22T15:45:34;1.8;;;0.6;;
82805;SDS011;72558;51.000;-3.112;2023-11-22T15:48:34;2.9;;;0.4;;
82805;SDS011;72558;51.000;-3.112;2023-11-22T15:51:34;2.6;;;0.5;;
82805;SDS011;72558;51.000;-3.112;2023-11-22T15:54:34;1.5;;;0.4;;
82805;SDS011;72558;51.000;-3.112;2023-11-22T15:57:34;2.8;;;0.4;;
82805;SDS011;72558;51.000;-3.112;2023-11-22T16:00:34;2.2;;;0.6;;
82805;SDS011;72558;51.000;-3.112;2023-11-22T16:03:34;2.1;;;0.5;;
82805;SDS011;72558;51.000;-3.112;2023-11-22T16:06:33;2.3;;;0.5;;
82805;SDS011;72558;51.000;-3.112;2023-11-22T16:09:34;2.9;;;0.8;;
82805;SDS011;72558;51.000;-3.112;2023-11-22T16:12:34;5.3;;;1.2;;
82805;SDS011;72558;51.000;-3.112;2023-11-22T16:15:33;5.8;;;1.2;;
82805;SDS011;72558;51.000;-3.112;2023-11-22T16:18:34;5.1;;;1.3;;
82805;SDS011;72558;51.000;-3.112;2023-11-22T16:21:33;4.2;;;1.0;;
82805;SDS011;72558;51.000;-3.112;2023-11-22T16:24:34;3.5;;;0.8;;
82805;SDS011;72558;51.000;-3.112;2023-11-22T16:27:33;4.1;;;0.6;;
82805;SDS011;72558;51.000;-3.112;2023-11-22T16:30:34;3.6;;;0.5;;
82805;SDS011;72558;51.000;-3.112;2023-11-22T16:33:33;4.0;;;0.3;;
82805;SDS011;72558;51.000;-3.112;2023-11-22T16:36:34;1.2;;;0.3;;
82805;SDS011;72558;51.000;-3.112;2023-11-22T16:39:33;1.6;;;0.3;;
82805;SDS011;72558;51.000;-3.112;2023-11-22T16:42:34;1.5;;;0.2;;
82805;SDS011;72558;51.000;-3.112;2023-11-22T16:45:33;1.6;;;0.3;;
82805;SDS011;72558;51.000;-3.112;2023-11-22T16:48:34;2.2;;;0.5;;
82805;SDS011;72558;51.000;-3.112;2023-11-22T16:51:34;1.8;;;0.6;;
82805;SDS011;72558;51.000;-3.112;2023-11-22T16:54:34;4.5;;;0.5;;
82805;SDS011;72558;51.000;-3.112;2023-11-22T16:57:34;1.5;;;0.4;;
82805;SDS011;72558;51.000;-3.112;2023-11-22T17:00:34;2.6;;;0.4;;
82805;SDS011;72558;51.000;-3.112;2023-11-22T17:03:33;11.0;;;2.3;;
82805;SDS011;72558;51.000;-3.112;2023-11-22T17:06:34;9.4;;;2.6;;
82805;SDS011;72558;51.000;-3.112;2023-11-22T17:09:33;2.5;;;0.5;;
82805;SDS011;72558;51.000;-3.112;2023-11-22T17:12:34;3.0;;;0.6;;
82805;SDS011;72558;51.000;-3.112;2023-11-22T17:15:33;1.9;;;0.5;;
82805;SDS011;72558;51.000;-3.112;2023-11-22T17:18:34;2.0;;;0.7;;
82805;SDS011;72558;51.000;-3.112;2023-11-22T17:21:33;1.9;;;0.4;;
82805;SDS011;72558;51.000;-3.112;2023-11-22T17:24:34;1.6;;;0.5;;
82805;SDS011;72558;51.000;-3.112;2023-11-22T17:27:33;2.0;;;0.6;;
82805;SDS011;72558;51.000;-3.112;2023-11-22T17:30:35;1.6;;;0.4;;
82805;SDS011;72558;51.000;-3.112;2023-11-22T17:33:34;2.6;;;0.5;;
82805;SDS011;72558;51.000;-3.112;2023-11-22T17:36:34;3.0;;;0.5;;
82805;SDS011;72558;51.000;-3.112;2023-11-22T17:39:34;2.8;;;0.6;;
82805;SDS011;72558;51.000;-3.112;2023-11-22T17:42:34;3.5;;;1.0;;
82805;SDS011;72558;51.000;-3.112;2023-11-22T17:45:34;3.6;;;1.0;;
82805;SDS011;72558;51.000;-3.112;2023-11-22T17:48:34;2.4;;;0.7;;
82805;SDS011;72558;51.000;-3.112;2023-11-22T17:51:34;3.1;;;0.6;;
82805;SDS011;72558;51.000;-3.112;2023-11-22T17:54:34;2.3;;;0.7;;
82805;SDS011;72558;51.000;-3.112;2023-11-22T17:57:33;5.3;;;2.2;;
82805;SDS011;72558;51.000;-3.112;2023-11-22T18:00:34;9.2;;;3.7;;
82805;SDS011;72558;51.000;-3.112;2023-11-22T18:03:33;9.1;;;3.6;;
82805;SDS011;72558;51.000;-3.112;2023-11-22T18:06:34;6.7;;;2.6;;
82805;SDS011;72558;51.000;-3.112;2023-11-22T18:09:34;8.5;;;2.9;;
82805;SDS011;72558;51.000;-3.112;2023-11-22T18:12:33;5.6;;;1.5;;
82805;SDS011;72558;51.000;-3.112;2023-11-22T18:15:34;5.6;;;1.5;;